Time;durP1;ratioP1;P1;durP2;ratioP2;P2;SDS_P1;SDS_P2;PMS_P1;PMS_P2;Temp;Humidity;BMP_temperature;BMP_pressure;BME280_temperature;BME280_humidity;BME280_pressure;Samples;Min_cycle;Max_cycle;Signal;HPM_P1;HPM_P2
2021/10/26 00:01:10;;;;;;;3.22;0.75;;;25.50;71.50;;;;;;5074280;28;20053;-72
2021/10/26 00:03:39;;;;;;;1.85;1.25;;;25.70;72.80;;;;;;5073780;28;20020;-72
2021/10/26 00:06:06;;;;;;;3.90;0.98;;;26.10;72.30;;;;;;5078249;28;20050;-72
2021/10/26 00:08:34;;;;;;;2.45;0.93;;;26.00;70.40;;;;;;5062326;28;20097;-71
2021/10/26 00:11:01;;;;;;;4.38;0.73;;;26.30;71.70;;;;;;5087937;28;20028;-71
2021/10/26 00:13:28;;;;;;;2.17;0.77;;;26.90;72.50;;;;;;5080307;28;20078;-71
2021/10/26 00:15:56;;;;;;;4.20;0.77;;;27.30;70.00;;;;;;5083352;28;20040;-72
2021/10/26 00:18:23;;;;;;;2.83;1.05;;;27.70;68.50;;;;;;5088014;28;20055;-71
2021/10/26 00:20:51;;;;;;;4.05;1.27;;;27.60;65.50;;;;;;5090626;28;20025;-74
2021/10/26 00:23:18;;;;;;;1.92;0.88;;;27.10;63.20;;;;;;5072204;28;20379;-71
2021/10/26 00:25:46;;;;;;;6.82;0.80;;;26.60;65.50;;;;;;5078200;28;20107;-71
2021/10/26 00:28:13;;;;;;;2.08;0.68;;;26.70;66.60;;;;;;5097806;28;20028;-71
2021/10/26 00:30:40;;;;;;;3.15;0.70;;;26.40;62.40;;;;;;5075350;28;20537;-71
2021/10/26 00:33:08;;;;;;;3.50;0.93;;;26.00;63.10;;;;;;5080055;28;20076;-71
2021/10/26 00:35:35;;;;;;;3.05;0.80;;;25.80;62.60;;;;;;5103459;28;20035;-72
2021/10/26 00:38:02;;;;;;;2.63;0.88;;;26.00;65.60;;;;;;5084154;28;20073;-70
2021/10/26 00:40:33;;;;;;;2.92;0.70;;;26.30;65.00;;;;;;5078295;28;20055;-70
2021/10/26 00:43:00;;;;;;;3.75;0.90;;;26.20;64.30;;;;;;5082826;28;20028;-71
2021/10/26 00:45:28;;;;;;;3.40;0.50;;;25.90;66.30;;;;;;5085425;28;20029;-69
2021/10/26 00:47:55;;;;;;;1.20;0.70;;;25.80;66.40;;;;;;5096017;28;20047;-70
2021/10/26 00:50:22;;;;;;;1.98;0.70;;;26.00;65.60;;;;;;5094173;28;20024;-71
2021/10/26 00:52:50;;;;;;;3.17;0.82;;;26.00;65.40;;;;;;5091023;28;20378;-71
2021/10/26 00:55:17;;;;;;;3.22;0.63;;;26.00;64.80;;;;;;5078435;28;20021;-74
2021/10/26 00:57:45;;;;;;;3.53;0.80;;;26.00;63.00;;;;;;5090675;28;20036;-69
2021/10/26 01:00:13;;;;;;;2.35;0.77;;;26.40;65.50;;;;;;5101961;28;20031;-71
2021/10/26 01:02:45;;;;;;;3.35;1.00;;;26.60;63.60;;;;;;5090639;28;20032;-70
2021/10/26 01:05:14;;;;;;;3.58;0.93;;;26.20;62.20;;;;;;5086248;28;20250;-70
2021/10/26 01:07:43;;;;;;;2.30;1.13;;;26.20;62.80;;;;;;5088025;28;20055;-69
2021/10/26 01:10:11;;;;;;;3.60;0.73;;;26.40;63.30;;;;;;5079591;28;20016;-71
2021/10/26 01:12:39;;;;;;;3.50;0.85;;;26.80;62.90;;;;;;5073838;28;20032;-71
2021/10/26 01:15:09;;;;;;;3.05;0.63;;;27.10;65.80;;;;;;5090215;28;20367;-69
2021/10/26 01:17:37;;;;;;;1.73;0.57;;;27.30;60.20;;;;;;5089637;28;20169;-73
2021/10/26 01:20:07;;;;;;;1.60;0.88;;;27.20;60.40;;;;;;5079526;28;20024;-71
2021/10/26 01:22:39;;;;;;;5.75;1.00;;;27.20;61.50;;;;;;5076492;28;20032;-72
2021/10/26 01:25:09;;;;;;;4.28;2.15;;;27.00;60.60;;;;;;5072911;28;20029;-70
2021/10/26 01:27:44;;;;;;;4.78;0.50;;;26.60;60.90;;;;;;5082623;28;20166;-72
2021/10/26 01:30:13;;;;;;;1.35;0.70;;;26.80;61.60;;;;;;5076484;28;20023;-70
2021/10/26 01:32:41;;;;;;;1.42;0.50;;;27.30;60.30;;;;;;5076721;28;20056;-72
2021/10/26 01:35:08;;;;;;;5.55;0.63;;;27.70;59.90;;;;;;5078980;28;20024;-70
2021/10/26 01:37:36;;;;;;;2.80;0.85;;;27.90;60.90;;;;;;5075844;28;20240;-70
2021/10/26 01:40:07;;;;;;;2.25;0.82;;;28.20;56.30;;;;;;5079473;28;20546;-69
2021/10/26 01:42:34;;;;;;;2.22;0.70;;;27.70;54.40;;;;;;5085331;28;20437;-70
2021/10/26 01:45:02;;;;;;;4.32;0.85;;;27.30;56.30;;;;;;5081302;28;20028;-70
2021/10/26 01:47:29;;;;;;;2.10;0.60;;;27.30;55.50;;;;;;5079941;28;20032;-72
2021/10/26 01:49:56;;;;;;;3.25;1.00;;;27.30;56.90;;;;;;5080209;28;20024;-70
2021/10/26 01:52:24;;;;;;;1.80;0.70;;;27.10;54.70;;;;;;5074759;28;20099;-70
2021/10/26 01:54:52;;;;;;;1.45;0.73;;;27.10;56.30;;;;;;5078171;28;20024;-69
2021/10/26 01:57:22;;;;;;;6.68;0.95;;;27.10;53.80;;;;;;5079891;28;20028;-69
2021/10/26 01:59:49;;;;;;;2.95;0.65;;;27.00;57.80;;;;;;5082655;28;20368;-73
2021/10/26 02:02:16;;;;;;;1.80;0.40;;;27.10;53.60;;;;;;5080822;28;20119;-72
2021/10/26 02:04:44;;;;;;;1.90;0.40;;;27.00;51.70;;;;;;5085953;28;20032;-73
2021/10/26 02:07:12;;;;;;;1.58;0.50;;;27.30;57.00;;;;;;5084559;28;20487;-73
2021/10/26 02:09:40;;;;;;;2.42;0.50;;;28.00;59.80;;;;;;5085318;28;20482;-73
2021/10/26 02:12:08;;;;;;;4.35;0.88;;;28.30;53.90;;;;;;5079197;28;20123;-70
2021/10/26 02:14:36;;;;;;;1.27;0.65;;;28.30;52.70;;;;;;5079504;28;20036;-70
2021/10/26 02:17:05;;;;;;;1.20;0.60;;;27.80;53.70;;;;;;5078918;28;20101;-71
2021/10/26 02:19:33;;;;;;;2.30;0.70;;;27.40;55.60;;;;;;5086417;28;20106;-71
2021/10/26 02:22:00;;;;;;;2.95;0.82;;;27.40;54.20;;;;;;5078734;28;20060;-72
2021/10/26 02:24:28;;;;;;;2.63;0.55;;;27.90;58.60;;;;;;5082330;28;20051;-71
2021/10/26 02:26:55;;;;;;;1.63;0.60;;;28.50;54.90;;;;;;5081432;28;20540;-71
2021/10/26 02:29:23;;;;;;;2.35;0.80;;;29.00;53.10;;;;;;5078106;28;20479;-71
2021/10/26 02:31:50;;;;;;;1.33;0.52;;;29.20;56.20;;;;;;5081871;28;20033;-70
2021/10/26 02:34:17;;;;;;;0.90;0.40;;;29.80;57.30;;;;;;5081154;28;20081;-71
2021/10/26 02:36:45;;;;;;;0.98;0.60;;;30.10;54.00;;;;;;5075014;28;20068;-70
2021/10/26 02:39:13;;;;;;;3.53;1.02;;;29.90;50.30;;;;;;5048166;28;20032;-71
2021/10/26 02:41:41;;;;;;;1.25;0.60;;;30.20;55.40;;;;;;5064702;28;20024;-72
2021/10/26 02:44:08;;;;;;;1.35;0.55;;;30.40;54.20;;;;;;5061850;28;20550;-74
2021/10/26 02:46:36;;;;;;;1.25;0.60;;;30.60;52.00;;;;;;5063272;28;20071;-70
2021/10/26 02:49:04;;;;;;;2.35;1.08;;;30.70;55.10;;;;;;5064823;28;20028;-71
2021/10/26 02:51:32;;;;;;;1.80;1.08;;;30.90;50.80;;;;;;5067894;28;20348;-72
2021/10/26 02:54:00;;;;;;;1.13;0.40;;;30.50;50.60;;;;;;5075672;28;20097;-71
2021/10/26 02:56:28;;;;;;;3.35;0.75;;;29.30;49.50;;;;;;5068032;28;20039;-71
2021/10/26 02:58:55;;;;;;;5.45;0.80;;;28.80;51.50;;;;;;5078745;28;20020;-71
2021/10/26 03:01:23;;;;;;;3.95;1.02;;;28.30;52.00;;;;;;5077020;28;20059;-72
2021/10/26 03:03:51;;;;;;;3.33;0.93;;;27.80;52.20;;;;;;5074462;28;20043;-72
2021/10/26 03:06:19;;;;;;;3.58;0.70;;;27.40;52.80;;;;;;5076046;28;20064;-73
2021/10/26 03:08:46;;;;;;;2.72;0.82;;;27.60;53.40;;;;;;5075826;28;20038;-70
2021/10/26 03:11:14;;;;;;;2.38;0.80;;;27.10;51.90;;;;;;5067056;28;20028;-70
2021/10/26 03:13:44;;;;;;;2.15;0.70;;;26.30;52.40;;;;;;5078323;28;20193;-71
2021/10/26 03:16:11;;;;;;;2.30;0.60;;;25.80;54.30;;;;;;5077520;28;20071;-72
2021/10/26 03:18:39;;;;;;;2.25;0.82;;;25.70;55.80;;;;;;5076598;28;20020;-70
2021/10/26 03:21:06;;;;;;;5.85;0.80;;;25.80;55.50;;;;;;5078545;28;20498;-70
2021/10/26 03:23:34;;;;;;;4.78;0.70;;;26.30;54.20;;;;;;5068223;28;20032;-70
2021/10/26 03:26:01;;;;;;;1.50;0.93;;;27.10;52.20;;;;;;5072880;28;20096;-71
2021/10/26 03:28:29;;;;;;;2.42;0.68;;;27.80;51.60;;;;;;5070408;28;20081;-73
2021/10/26 03:31:01;;;;;;;4.55;0.80;;;28.60;51.00;;;;;;5069124;28;20094;-70
2021/10/26 03:33:30;;;;;;;1.98;0.80;;;29.20;52.50;;;;;;5063922;28;20455;-70
2021/10/26 03:35:59;;;;;;;2.80;0.85;;;29.40;50.50;;;;;;5084329;28;20103;-73
2021/10/26 03:38:26;;;;;;;2.80;0.82;;;28.40;57.10;;;;;;5089031;28;20073;-70
2021/10/26 03:40:55;;;;;;;5.15;1.38;;;27.80;58.40;;;;;;5091408;28;20016;-71
2021/10/26 03:43:26;;;;;;;5.05;1.10;;;27.50;59.10;;;;;;5089363;28;20024;-68
2021/10/26 03:45:53;;;;;;;4.70;1.40;;;27.50;59.50;;;;;;5083772;28;20475;-69
2021/10/26 03:48:21;;;;;;;7.03;0.77;;;27.90;59.80;;;;;;5080451;28;20063;-69
2021/10/26 03:50:49;;;;;;;3.47;1.48;;;28.20;59.20;;;;;;5083996;28;20073;-68
2021/10/26 03:53:17;;;;;;;2.13;0.75;;;28.10;58.20;;;;;;5082706;28;20077;-68
2021/10/26 03:55:44;;;;;;;5.07;0.95;;;28.00;58.50;;;;;;5076447;28;20445;-71
2021/10/26 03:58:11;;;;;;;1.00;0.77;;;28.00;58.30;;;;;;5077142;28;20070;-70
2021/10/26 04:00:40;;;;;;;3.30;0.82;;;27.80;58.60;;;;;;5084755;28;20027;-73
2021/10/26 04:03:07;;;;;;;6.70;1.13;;;27.70;58.80;;;;;;5077864;28;20024;-70
2021/10/26 04:08:09;;;;;;;5.88;1.65;;;28.00;60.00;;;;;;5077091;28;20168;-72
2021/10/26 04:10:47;;;;;;;5.93;1.73;;;27.80;59.80;;;;;;5085904;28;20494;-72
2021/10/26 04:13:14;;;;;;;2.92;1.20;;;27.60;59.80;;;;;;5085262;28;20051;-73
2021/10/26 04:15:42;;;;;;;3.72;1.65;;;27.70;59.30;;;;;;5071217;28;20028;-71
2021/10/26 04:18:10;;;;;;;1.75;0.82;;;27.80;59.00;;;;;;5092901;28;20028;-69
2021/10/26 04:20:37;;;;;;;4.72;1.55;;;28.10;58.90;;;;;;5088266;28;20685;-73
2021/10/26 04:23:05;;;;;;;4.28;0.80;;;28.00;60.10;;;;;;5078595;28;20024;-74
2021/10/26 04:25:33;;;;;;;4.90;1.58;;;27.80;60.10;;;;;;5084082;28;20360;-70
2021/10/26 04:28:01;;;;;;;3.08;1.27;;;27.50;61.00;;;;;;5077506;28;20043;-70
2021/10/26 04:30:29;;;;;;;2.45;0.98;;;27.20;60.80;;;;;;5076885;28;20510;-70
2021/10/26 04:32:56;;;;;;;1.98;0.70;;;27.10;61.60;;;;;;5076299;28;20043;-71
2021/10/26 04:35:23;;;;;;;2.67;0.88;;;27.10;62.20;;;;;;5079324;28;20017;-72
2021/10/26 04:37:52;;;;;;;5.88;1.98;;;27.00;61.60;;;;;;5088892;28;20059;-69
2021/10/26 04:40:20;;;;;;;2.45;0.82;;;26.90;61.80;;;;;;5085081;28;20035;-70
2021/10/26 04:42:47;;;;;;;3.13;1.13;;;26.60;62.30;;;;;;5092745;28;20085;-75
2021/10/26 04:45:15;;;;;;;6.40;1.27;;;26.30;62.80;;;;;;5076459;28;20029;-70
2021/10/26 04:47:44;;;;;;;7.15;1.10;;;26.30;63.80;;;;;;5090898;28;20111;-70
2021/10/26 04:50:14;;;;;;;3.28;0.80;;;26.30;63.60;;;;;;5088719;28;20024;-72
2021/10/26 04:52:42;;;;;;;7.22;1.17;;;26.00;63.80;;;;;;5085944;28;20035;-70
2021/10/26 04:55:09;;;;;;;6.57;1.08;;;25.90;64.20;;;;;;5083259;28;20020;-70
2021/10/26 04:57:38;;;;;;;4.90;0.82;;;25.70;64.30;;;;;;5083916;28;20036;-70
2021/10/26 05:00:09;;;;;;;3.13;1.25;;;25.50;64.80;;;;;;5084494;28;20028;-74
2021/10/26 05:02:37;;;;;;;4.55;1.05;;;25.50;65.20;;;;;;5082618;28;20111;-69
2021/10/26 05:05:05;;;;;;;3.30;2.03;;;25.50;65.50;;;;;;5082471;28;20036;-72
2021/10/26 05:07:34;;;;;;;2.58;1.15;;;25.60;65.50;;;;;;5086757;28;20085;-71
2021/10/26 05:10:02;;;;;;;4.68;1.27;;;25.60;65.10;;;;;;5082558;28;20635;-70
2021/10/26 05:12:29;;;;;;;5.13;1.38;;;25.50;65.20;;;;;;5077676;28;20019;-71
2021/10/26 05:14:56;;;;;;;8.07;1.60;;;25.50;65.50;;;;;;5080327;28;20028;-71
2021/10/26 05:17:25;;;;;;;5.25;1.33;;;25.20;65.50;;;;;;5082171;28;20045;-71
2021/10/26 05:19:54;;;;;;;1.80;1.00;;;25.00;66.20;;;;;;5076586;28;20089;-73
2021/10/26 05:22:24;;;;;;;3.95;1.35;;;24.90;66.40;;;;;;5075636;28;20479;-71
2021/10/26 05:24:54;;;;;;;5.15;1.70;;;24.70;67.00;;;;;;5075519;28;20493;-71
2021/10/26 05:27:22;;;;;;;3.53;1.45;;;24.60;67.40;;;;;;5078894;28;20048;-71
2021/10/26 05:29:50;;;;;;;3.13;1.08;;;24.60;67.20;;;;;;5077347;28;20032;-71
2021/10/26 05:32:18;;;;;;;8.13;1.60;;;24.50;67.60;;;;;;5080398;28;20028;-71
2021/10/26 05:34:47;;;;;;;3.45;1.17;;;24.40;67.60;;;;;;5085686;28;20051;-71
2021/10/26 05:37:14;;;;;;;5.30;1.10;;;24.20;68.70;;;;;;5079664;28;20067;-71
2021/10/26 05:39:44;;;;;;;2.50;1.10;;;24.20;68.10;;;;;;5080789;28;20052;-73
2021/10/26 05:42:11;;;;;;;4.30;1.30;;;24.10;68.20;;;;;;5077291;28;20056;-73
2021/10/26 05:44:39;;;;;;;2.60;0.82;;;24.10;68.60;;;;;;5077789;28;20025;-73
2021/10/26 05:47:06;;;;;;;5.00;1.42;;;23.90;69.00;;;;;;5079812;28;20024;-75
2021/10/26 05:49:34;;;;;;;2.08;1.13;;;23.90;69.60;;;;;;5085419;28;20055;-75
2021/10/26 05:52:01;;;;;;;4.80;1.45;;;23.90;69.50;;;;;;5084122;28;20031;-75
2021/10/26 05:54:29;;;;;;;3.03;1.33;;;23.70;69.50;;;;;;5084268;28;20024;-73
2021/10/26 05:56:56;;;;;;;5.32;1.40;;;23.60;69.80;;;;;;5087111;28;20045;-72
2021/10/26 05:59:23;;;;;;;3.90;1.38;;;23.80;69.60;;;;;;5089624;28;20016;-71
2021/10/26 06:01:51;;;;;;;7.00;1.63;;;23.70;69.90;;;;;;5089216;28;20052;-72
2021/10/26 06:04:19;;;;;;;2.53;1.10;;;23.40;70.40;;;;;;5090066;28;20020;-75
2021/10/26 06:06:47;;;;;;;3.95;1.00;;;23.30;70.80;;;;;;5089161;28;20543;-71
2021/10/26 06:09:16;;;;;;;2.53;1.40;;;23.50;70.60;;;;;;5087777;28;20383;-72
2021/10/26 06:11:46;;;;;;;2.70;0.98;;;23.20;70.90;;;;;;5087821;28;20020;-72
2021/10/26 06:14:14;;;;;;;4.90;1.42;;;23.30;71.20;;;;;;5089229;28;20069;-74
2021/10/26 06:16:41;;;;;;;3.80;1.67;;;23.20;71.30;;;;;;5086756;28;20096;-72
2021/10/26 06:19:10;;;;;;;4.57;1.42;;;23.10;71.80;;;;;;5089950;28;20085;-73
2021/10/26 06:21:38;;;;;;;6.22;1.65;;;23.20;72.00;;;;;;5088418;28;20024;-73
2021/10/26 06:24:05;;;;;;;2.53;1.23;;;23.00;71.80;;;;;;5084969;28;20074;-73
2021/10/26 06:26:33;;;;;;;6.40;1.77;;;22.90;72.10;;;;;;5079612;28;20025;-72
2021/10/26 06:29:00;;;;;;;2.60;1.30;;;22.80;72.80;;;;;;5086301;28;20038;-70
2021/10/26 06:31:28;;;;;;;4.50;1.77;;;22.90;72.50;;;;;;5087653;28;20649;-75
2021/10/26 06:33:55;;;;;;;3.03;1.00;;;22.90;72.70;;;;;;5072179;28;20036;-70
2021/10/26 06:36:23;;;;;;;5.22;1.08;;;22.80;72.90;;;;;;5071389;28;20064;-74
2021/10/26 06:38:51;;;;;;;2.45;1.13;;;22.50;73.90;;;;;;5091463;28;20028;-73
2021/10/26 06:41:19;;;;;;;3.08;1.02;;;22.50;74.10;;;;;;5088534;28;20742;-72
2021/10/26 06:43:48;;;;;;;4.47;1.63;;;22.50;74.40;;;;;;5092968;28;20103;-74
2021/10/26 06:46:16;;;;;;;6.35;1.20;;;22.50;75.20;;;;;;5092075;28;20030;-76
2021/10/26 06:48:44;;;;;;;3.22;1.45;;;22.50;74.90;;;;;;5092317;28;20028;-74
2021/10/26 06:51:11;;;;;;;3.22;1.50;;;22.40;75.10;;;;;;5092068;28;20051;-74
2021/10/26 06:53:39;;;;;;;4.00;1.30;;;22.30;75.40;;;;;;5094500;28;20031;-74
2021/10/26 06:56:13;;;;;;;3.45;1.20;;;22.20;75.80;;;;;;5089919;28;20035;-74
2021/10/26 06:58:40;;;;;;;3.88;1.15;;;22.20;75.70;;;;;;5089869;28;20463;-75
2021/10/26 07:01:09;;;;;;;6.57;1.42;;;21.90;76.30;;;;;;5090664;28;20024;-75
2021/10/26 07:03:37;;;;;;;4.57;1.55;;;21.90;76.80;;;;;;5091446;28;20024;-73
2021/10/26 07:06:05;;;;;;;4.40;1.17;;;21.80;76.90;;;;;;5089016;28;20566;-73
2021/10/26 07:08:33;;;;;;;2.78;1.15;;;21.70;77.50;;;;;;5092268;28;20100;-72
2021/10/26 07:11:00;;;;;;;3.30;0.88;;;21.70;77.50;;;;;;5098706;28;20040;-73
2021/10/26 07:13:28;;;;;;;2.20;1.05;;;21.60;77.90;;;;;;5100268;28;20031;-74
2021/10/26 07:15:55;;;;;;;5.63;1.52;;;21.60;78.10;;;;;;5090190;28;20383;-73
2021/10/26 07:18:23;;;;;;;2.92;1.30;;;21.40;78.20;;;;;;5087170;28;20128;-75
2021/10/26 07:20:50;;;;;;;3.45;2.05;;;21.40;78.70;;;;;;5088502;28;20355;-73
2021/10/26 07:23:17;;;;;;;3.53;1.25;;;21.30;78.90;;;;;;5088041;28;20085;-70
2021/10/26 07:25:45;;;;;;;1.27;1.05;;;21.20;79.30;;;;;;5081693;28;20025;-74
2021/10/26 07:28:12;;;;;;;1.60;1.00;;;21.10;79.60;;;;;;5091450;28;20510;-73
2021/10/26 07:30:44;;;;;;;4.95;1.10;;;21.00;80.00;;;;;;5091817;28;20561;-74
2021/10/26 07:33:19;;;;;;;1.92;1.08;;;21.00;80.20;;;;;;5093336;28;20055;-74
2021/10/26 07:35:48;;;;;;;2.78;1.35;;;20.90;80.40;;;;;;5089877;28;20455;-73
2021/10/26 07:38:28;;;;;;;5.05;1.00;;;20.90;80.50;;;;;;5088030;28;20550;-72
2021/10/26 07:41:00;;;;;;;1.88;0.88;;;20.80;81.00;;;;;;5091614;28;20206;-73
2021/10/26 07:43:29;;;;;;;3.92;1.25;;;20.70;81.30;;;;;;5091653;28;20028;-71
2021/10/26 07:45:59;;;;;;;3.58;1.10;;;20.70;81.80;;;;;;5090663;28;20020;-71
2021/10/26 07:48:27;;;;;;;2.53;0.98;;;20.60;82.90;;;;;;5091585;28;20024;-70
2021/10/26 07:50:58;;;;;;;2.15;1.27;;;20.50;82.80;;;;;;5091166;28;20488;-75
2021/10/26 07:53:30;;;;;;;1.88;1.35;;;20.40;83.10;;;;;;5093096;28;20039;-74
2021/10/26 07:55:58;;;;;;;2.22;0.77;;;20.40;83.80;;;;;;5079516;28;20080;-73
2021/10/26 07:58:26;;;;;;;8.25;1.58;;;20.30;83.80;;;;;;5094641;28;20508;-74
2021/10/26 08:00:54;;;;;;;3.83;0.90;;;20.20;84.20;;;;;;5083072;28;20363;-74
2021/10/26 08:03:22;;;;;;;6.03;2.88;;;20.10;84.90;;;;;;5091857;28;20039;-75
2021/10/26 08:05:53;;;;;;;4.93;2.30;;;20.00;85.80;;;;;;5091201;28;20027;-73
2021/10/26 08:08:21;;;;;;;5.63;1.85;;;20.00;86.60;;;;;;5084640;28;20111;-76
2021/10/26 08:10:48;;;;;;;3.38;1.33;;;19.90;86.70;;;;;;5080396;28;20032;-75
2021/10/26 08:13:16;;;;;;;3.28;0.93;;;19.80;87.20;;;;;;5084995;28;20496;-75
2021/10/26 08:15:43;;;;;;;2.92;1.38;;;19.80;87.70;;;;;;5086722;28;20024;-74
2021/10/26 08:18:11;;;;;;;2.08;0.60;;;19.70;88.00;;;;;;5092955;28;20089;-74
2021/10/26 08:20:42;;;;;;;2.65;1.17;;;19.70;88.30;;;;;;5089079;28;20024;-77
2021/10/26 08:23:09;;;;;;;2.72;0.98;;;19.60;89.10;;;;;;5089035;28;20032;-74
2021/10/26 08:25:40;;;;;;;5.55;1.10;;;19.50;89.30;;;;;;5089364;28;20033;-75
2021/10/26 08:28:13;;;;;;;14.25;1.40;;;19.50;90.00;;;;;;5091878;28;20032;-74
2021/10/26 08:35:57;;;;;;;1.95;0.73;;;19.30;90.90;;;;;;5091195;28;20020;-75
2021/10/26 08:38:25;;;;;;;1.40;0.68;;;19.30;91.30;;;;;;5091460;28;20031;-75
2021/10/26 08:40:53;;;;;;;7.13;1.27;;;19.20;91.60;;;;;;5090613;28;20016;-75
2021/10/26 08:43:26;;;;;;;2.17;0.90;;;19.10;92.20;;;;;;5087410;28;20073;-74
2021/10/26 08:45:55;;;;;;;2.30;0.98;;;19.00;92.50;;;;;;5078369;28;20049;-76
2021/10/26 08:48:25;;;;;;;4.03;1.25;;;19.00;93.00;;;;;;5062487;28;20047;-74
2021/10/26 08:50:56;;;;;;;4.28;1.15;;;19.00;93.40;;;;;;5064553;28;20475;-75
2021/10/26 08:53:29;;;;;;;4.75;1.50;;;19.00;93.50;;;;;;5078824;28;20379;-73
2021/10/26 08:56:03;;;;;;;4.00;1.33;;;19.10;93.60;;;;;;5083577;28;20098;-75
2021/10/26 08:58:34;;;;;;;2.67;1.17;;;19.00;93.70;;;;;;5079861;28;20028;-75
2021/10/26 09:01:03;;;;;;;4.50;0.95;;;19.00;93.90;;;;;;5080614;28;20107;-76
2021/10/26 09:03:37;;;;;;;1.33;0.60;;;19.00;94.10;;;;;;5077123;28;20032;-74
2021/10/26 09:06:06;;;;;;;2.20;1.20;;;18.90;94.30;;;;;;5081788;28;20031;-74
2021/10/26 09:08:35;;;;;;;4.20;0.82;;;18.90;94.50;;;;;;5078938;28;20028;-75
2021/10/26 09:11:20;;;;;;;6.30;1.27;;;18.90;94.70;;;;;;5083707;28;20143;-74
2021/10/26 09:16:42;;;;;;;3.50;0.77;;;18.90;95.10;;;;;;5078770;28;20126;-75
2021/10/26 09:19:22;;;;;;;5.38;1.35;;;18.80;95.30;;;;;;5088953;28;20059;-75
2021/10/26 09:22:04;;;;;;;5.45;0.88;;;18.70;95.70;;;;;;5076081;28;20040;-75
2021/10/26 09:24:33;;;;;;;1.25;0.80;;;18.60;96.00;;;;;;5077758;28;20032;-74
2021/10/26 09:27:04;;;;;;;4.10;0.73;;;18.50;96.30;;;;;;5078291;28;20094;-74
2021/10/26 09:29:39;;;;;;;8.57;1.25;;;18.40;96.90;;;;;;5078468;28;20694;-73
2021/10/26 09:32:10;;;;;;;7.85;1.25;;;18.30;97.20;;;;;;5082896;28;20101;-73
2021/10/26 09:34:59;;;;;;;3.97;0.80;;;18.30;97.60;;;;;;5082747;28;20020;-75
2021/10/26 09:37:33;;;;;;;4.53;1.23;;;18.30;97.90;;;;;;5077131;28;20524;-74
2021/10/26 09:40:01;;;;;;;4.30;1.45;;;18.20;97.90;;;;;;5080745;28;20497;-73
2021/10/26 09:42:38;;;;;;;3.17;0.60;;;18.20;98.10;;;;;;5080373;28;20028;-74
2021/10/26 09:45:07;;;;;;;4.70;1.00;;;18.20;98.30;;;;;;5083652;28;20062;-73
2021/10/26 09:47:37;;;;;;;3.13;0.82;;;18.20;98.40;;;;;;5079721;28;20115;-74
2021/10/26 09:50:07;;;;;;;3.25;1.25;;;18.20;98.50;;;;;;5077499;28;20103;-73
2021/10/26 09:52:43;;;;;;;3.40;1.38;;;18.20;98.70;;;;;;5078231;28;20112;-72
2021/10/26 09:55:22;;;;;;;1.60;0.80;;;18.10;99.20;;;;;;5078628;28;20065;-72
2021/10/26 09:58:29;;;;;;;4.38;0.80;;;18.20;99.50;;;;;;5078365;28;20051;-74
2021/10/26 10:01:07;;;;;;;;;;;18.20;99.50;;;;;;5076963;28;20023;-72
2021/10/26 10:03:34;;;;;;;11.63;1.23;;;18.20;99.50;;;;;;5079748;28;20104;-72
2021/10/26 10:06:10;;;;;;;5.75;2.40;;;18.20;99.60;;;;;;5077384;28;20101;-73
2021/10/26 10:08:39;;;;;;;8.25;2.28;;;18.20;99.70;;;;;;5078824;28;20047;-73
2021/10/26 10:11:06;;;;;;;4.32;0.90;;;18.20;99.70;;;;;;5078249;28;20115;-74
2021/10/26 10:13:59;;;;;;;8.18;1.38;;;18.10;99.90;;;;;;5080078;28;20093;-74
2021/10/26 10:16:27;;;;;;;3.22;0.90;;;18.10;99.90;;;;;;5083684;28;20040;-73
2021/10/26 10:18:56;;;;;;;2.33;1.05;;;18.20;99.90;;;;;;5082002;28;20506;-73
2021/10/26 10:21:26;;;;;;;1.08;0.68;;;18.20;99.90;;;;;;5084386;28;20391;-74
2021/10/26 10:24:00;;;;;;;3.75;1.30;;;18.20;99.90;;;;;;5085567;28;20032;-73
2021/10/26 10:26:30;;;;;;;3.90;0.65;;;18.10;99.90;;;;;;5080998;28;20361;-73
2021/10/26 10:29:01;;;;;;;8.70;1.58;;;18.10;99.90;;;;;;5063672;28;20103;-74
2021/10/26 10:31:31;;;;;;;19.45;1.55;;;18.20;99.90;;;;;;5077548;28;20625;-74
2021/10/26 10:33:59;;;;;;;7.07;1.08;;;18.20;99.90;;;;;;5068488;28;20046;-73
2021/10/26 10:36:28;;;;;;;2.38;0.70;;;18.20;99.90;;;;;;5066813;28;20032;-71
2021/10/26 10:39:03;;;;;;;4.65;0.88;;;18.30;99.90;;;;;;5081597;28;20384;-71
2021/10/26 10:41:37;;;;;;;4.07;1.20;;;18.30;99.90;;;;;;5082412;28;20018;-73
2021/10/26 10:44:27;;;;;;;4.43;0.80;;;18.40;99.90;;;;;;5082059;28;20043;-72
2021/10/26 10:47:00;;;;;;;4.78;1.25;;;18.40;99.90;;;;;;5078536;28;20031;-71
2021/10/26 10:49:43;;;;;;;3.22;0.75;;;18.40;99.90;;;;;;5081227;28;20055;-72
2021/10/26 10:52:27;;;;;;;2.60;1.00;;;18.40;99.90;;;;;;5080253;28;20099;-73
2021/10/26 10:54:56;;;;;;;4.40;0.73;;;18.40;99.90;;;;;;5080244;28;20020;-72
2021/10/26 10:57:30;;;;;;;3.13;0.88;;;18.40;99.90;;;;;;5080249;28;20372;-70
2021/10/26 11:00:28;;;;;;;1.52;0.68;;;18.40;99.90;;;;;;5081430;28;20032;-72
2021/10/26 11:02:56;;;;;;;5.50;1.13;;;18.40;99.90;;;;;;5081909;28;20494;-73
2021/10/26 11:05:36;;;;;;;4.18;0.80;;;18.40;99.90;;;;;;5077374;28;20111;-73
2021/10/26 11:08:07;;;;;;;2.08;0.80;;;18.40;99.90;;;;;;5080202;28;20031;-73
2021/10/26 11:10:49;;;;;;;6.72;1.45;;;18.40;99.90;;;;;;5077862;28;20028;-72
2021/10/26 11:13:18;;;;;;;3.70;1.13;;;18.40;99.90;;;;;;5081092;28;20541;-74
2021/10/26 11:15:47;;;;;;;5.32;0.90;;;18.40;99.90;;;;;;5076537;28;20533;-73
2021/10/26 11:18:36;;;;;;;2.63;0.70;;;18.40;99.90;;;;;;5081012;28;20107;-74
2021/10/26 11:21:05;;;;;;;1.27;0.82;;;18.40;99.90;;;;;;5077596;28;20025;-71
2021/10/26 11:23:42;;;;;;;5.75;0.80;;;18.40;99.90;;;;;;5080195;28;20081;-72
2021/10/26 11:26:12;;;;;;;3.80;1.00;;;18.40;99.90;;;;;;5081271;28;20428;-73
2021/10/26 11:28:45;;;;;;;2.63;0.70;;;18.40;99.90;;;;;;5085490;28;20473;-74
2021/10/26 11:31:16;;;;;;;5.53;0.60;;;18.40;99.90;;;;;;5081760;28;20025;-76
2021/10/26 11:34:04;;;;;;;2.15;1.15;;;18.40;99.90;;;;;;5080763;28;20028;-73
2021/10/26 11:36:33;;;;;;;4.85;1.33;;;18.50;99.90;;;;;;5073157;28;20041;-74
2021/10/26 11:39:12;;;;;;;2.20;1.00;;;18.50;99.90;;;;;;5080288;28;20036;-73
2021/10/26 11:41:42;;;;;;;4.47;1.50;;;18.50;99.90;;;;;;5079803;28;20112;-73
2021/10/26 11:44:15;;;;;;;4.68;0.88;;;18.50;99.90;;;;;;5077857;28;20071;-74
2021/10/26 11:46:48;;;;;;;2.33;0.68;;;18.50;99.90;;;;;;5080471;28;20024;-74
2021/10/26 11:49:24;;;;;;;3.65;0.73;;;18.50;99.90;;;;;;5078573;28;20024;-73
2021/10/26 11:51:56;;;;;;;;;;;18.40;99.90;;;;;;5064829;28;20028;-72
2021/10/26 11:54:35;;;;;;;1.23;0.70;;;18.40;99.90;;;;;;5080849;28;19966;-76
2021/10/26 11:57:06;;;;;;;1.65;0.60;;;18.40;99.90;;;;;;5078701;28;20166;-73
2021/10/26 11:59:34;;;;;;;2.97;1.20;;;18.40;99.90;;;;;;5075813;28;20028;-73
2021/10/26 12:02:05;;;;;;;2.17;0.60;;;18.50;99.90;;;;;;5078891;28;20021;-73
2021/10/26 12:04:40;;;;;;;5.68;1.08;;;18.50;99.90;;;;;;5080293;28;21817;-74
2021/10/26 12:07:13;;;;;;;1.98;0.82;;;18.50;99.90;;;;;;5083632;28;20025;-72
2021/10/26 12:09:45;;;;;;;3.53;0.90;;;18.40;99.90;;;;;;5080504;28;20107;-71
2021/10/26 12:12:34;;;;;;;2.25;1.00;;;18.40;99.90;;;;;;5079334;28;20547;-74
2021/10/26 12:15:08;;;;;;;2.70;0.80;;;18.40;99.90;;;;;;5080505;28;20482;-73
2021/10/26 12:17:37;;;;;;;2.75;0.82;;;18.40;99.90;;;;;;5080983;28;20046;-71
2021/10/26 12:20:24;;;;;;;3.72;0.82;;;18.40;99.90;;;;;;5080919;28;20095;-73
2021/10/26 12:23:04;;;;;;;2.35;0.70;;;18.50;99.90;;;;;;5082373;28;20048;-73
2021/10/26 12:25:37;;;;;;;6.18;1.90;;;18.50;99.90;;;;;;5081549;28;20023;-72
2021/10/26 12:28:07;;;;;;;2.67;0.88;;;18.50;99.90;;;;;;5083081;28;20483;-73
2021/10/26 12:30:41;;;;;;;4.78;1.02;;;18.50;99.90;;;;;;5078570;28;20036;-73
2021/10/26 12:33:28;;;;;;;1.85;0.98;;;18.50;99.90;;;;;;5090059;28;20044;-71
2021/10/26 12:36:21;;;;;;;4.40;1.98;;;18.50;99.90;;;;;;5090279;28;20040;-72
2021/10/26 12:39:00;;;;;;;3.53;1.00;;;18.50;99.90;;;;;;5085617;28;20115;-73
2021/10/26 12:41:36;;;;;;;4.22;1.25;;;18.50;99.90;;;;;;5086279;28;20370;-72
2021/10/26 12:44:07;;;;;;;5.78;1.23;;;18.40;99.90;;;;;;5089390;28;20396;-72
2021/10/26 12:46:39;;;;;;;4.30;1.40;;;18.40;99.90;;;;;;5089262;28;20031;-75
2021/10/26 12:49:15;;;;;;;7.22;1.70;;;18.40;99.90;;;;;;5091470;28;20031;-71
2021/10/26 12:51:44;;;;;;;4.70;1.77;;;18.40;99.90;;;;;;5081828;28;20511;-72
2021/10/26 12:54:20;;;;;;;4.00;1.33;;;18.40;99.90;;;;;;5088423;28;20020;-72
2021/10/26 12:56:54;;;;;;;2.85;1.40;;;18.40;99.90;;;;;;5077940;28;20035;-72
2021/10/26 12:59:26;;;;;;;6.00;1.30;;;18.30;99.90;;;;;;5077839;28;20069;-72
2021/10/26 13:02:20;;;;;;;2.05;0.88;;;18.30;99.90;;;;;;5076479;28;20053;-72
2021/10/26 13:04:47;;;;;;;5.43;1.20;;;18.40;99.90;;;;;;5059695;28;20039;-73
2021/10/26 13:07:25;;;;;;;2.88;1.30;;;18.40;99.90;;;;;;5088037;28;20027;-71
2021/10/26 13:09:55;;;;;;;5.85;2.03;;;18.30;99.90;;;;;;5088871;28;20023;-71
2021/10/26 13:12:32;;;;;;;4.05;1.40;;;18.30;99.90;;;;;;5083582;28;20033;-72
2021/10/26 13:15:09;;;;;;;3.08;0.90;;;18.30;99.90;;;;;;5075137;28;20394;-72